Time,TemperatureF,DewpointF,PressureIn,WindDirection,WindDirectionDegrees,WindSpeedMPH,WindSpeedGustMPH,Humidity,HourlyPrecipIn,Conditions,Clouds,dailyrainin,SoftwareType,DateUTC
2013-10-15 00:12:00,33.0,29.0,-100.00,North,350,18.0,23.0,82,-99.99,,,-99.99,,2013-10-15 06:12:00,
2013-10-15 00:52:00,34.0,29.0,-100.00,NNW,345,16.0,22.0,81,-99.99,,,-99.99,,2013-10-15 06:52:00,
2013-10-15 01:12:00,34.0,29.0,-100.00,NNW,340,16.0,21.0,81,-99.99,,,-99.99,,2013-10-15 07:12:00,
2013-10-15 01:53:00,34.0,29.0,-100.00,NNW,345,16.0,22.0,79,-99.99,,,-99.99,,2013-10-15 07:53:00,
2013-10-15 02:12:00,34.0,29.0,-100.00,NNW,340,16.0,21.0,79,-99.99,,,-99.99,,2013-10-15 08:12:00,
2013-10-15 02:52:00,35.0,29.0,-100.00,NW,320,11.0,14.0,80,-99.99,,,-99.99,,2013-10-15 08:52:00,
2013-10-15 03:12:00,35.0,29.0,-100.00,NW,320,12.0,15.0,80,-99.99,,,-99.99,,2013-10-15 09:12:00,
2013-10-15 03:53:00,35.0,29.0,-100.00,NW,320,12.0,16.0,79,-99.99,,,-99.99,,2013-10-15 09:53:00,
2013-10-15 04:12:00,35.0,29.0,-100.00,NW,325,11.0,14.0,79,-99.99,,,-99.99,,2013-10-15 10:12:00,
2013-10-15 04:53:00,35.0,29.0,-100.00,NW,315,8.0,12.0,77,-99.99,,,-99.99,,2013-10-15 10:53:00,
2013-10-15 05:11:00,35.0,28.0,-100.00,NW,315,9.0,11.0,77,-99.99,,,-99.99,,2013-10-15 11:11:00,
2013-10-15 05:53:00,35.0,27.0,-100.00,NW,315,6.0,9.0,74,-99.99,,,-99.99,,2013-10-15 11:53:00,
2013-10-15 06:12:00,35.0,27.0,-100.00,NW,305,4.0,7.0,74,-99.99,,,-99.99,,2013-10-15 12:12:00,
2013-10-15 06:52:00,35.0,27.0,-100.00,WNW,295,6.0,8.0,74,-99.99,,,-99.99,,2013-10-15 12:52:00,
2013-10-15 07:11:00,35.0,27.0,-100.00,WNW,295,7.0,9.0,74,-99.99,,,-99.99,,2013-10-15 13:11:00,
2013-10-15 07:52:00,33.0,26.0,-100.00,WNW,295,12.0,15.0,75,-99.99,,,-99.99,,2013-10-15 13:52:00,
2013-10-15 08:12:00,33.0,26.0,-100.00,WNW,300,12.0,14.0,74,-99.99,,,-99.99,,2013-10-15 14:12:00,
2013-10-15 08:52:00,33.0,25.0,-100.00,WNW,300,12.0,14.0,73,-99.99,,,-99.99,,2013-10-15 14:52:00,
2013-10-15 09:11:00,33.0,25.0,-100.00,NW,305,11.0,14.0,72,-99.99,,,-99.99,,2013-10-15 15:11:00,
2013-10-15 09:53:00,35.0,27.0,-100.00,NW,310,11.0,16.0,70,-99.99,,,-99.99,,2013-10-15 15:53:00,
2013-10-15 10:13:00,36.0,26.0,-100.00,NW,305,10.0,15.0,68,-99.99,,,-99.99,,2013-10-15 16:13:00,
2013-10-15 10:53:00,39.0,26.0,-100.00,NW,310,13.0,-999.0,60,-99.99,,,-99.99,,2013-10-15 16:53:00,
2013-10-15 11:12:00,40.0,26.0,-100.00,NW,310,12.0,17.0,57,-99.99,,,-99.99,,2013-10-15 17:12:00,
2013-10-15 11:53:00,43.0,25.0,-100.00,NW,325,13.0,17.0,48,-99.99,,,-99.99,,2013-10-15 17:53:00,
2013-10-15 12:12:00,44.0,23.0,-100.00,NNW,345,14.0,18.0,43,-99.99,,,-99.99,,2013-10-15 18:12:00,
2013-10-15 12:52:00,45.0,21.0,-100.00,North,350,12.0,22.0,37,-99.99,,,-99.99,,2013-10-15 18:52:00,
2013-10-15 13:11:00,45.0,21.0,-100.00,NW,320,14.0,17.0,38,-99.99,,,-99.99,,2013-10-15 19:11:00,
2013-10-15 13:52:00,46.0,20.0,-100.00,NW,310,12.0,19.0,34,-99.99,,,-99.99,,2013-10-15 19:52:00,
2013-10-15 14:12:00,47.0,20.0,-100.00,NNW,340,9.0,18.0,33,-99.99,,,-99.99,,2013-10-15 20:12:00,
2013-10-15 14:52:00,47.0,20.0,-100.00,NW,320,9.0,17.0,32,-99.99,,,-99.99,,2013-10-15 20:52:00,
2013-10-15 15:12:00,48.0,20.0,-100.00,NW,325,11.0,18.0,32,-99.99,,,-99.99,,2013-10-15 21:12:00,
2013-10-15 17:52:00,46.0,18.0,-100.00,NW,310,6.0,9.0,33,-99.99,,,-99.99,,2013-10-15 23:52:00,
2013-10-15 18:12:00,45.0,18.0,-100.00,NW,320,6.0,8.0,34,-99.99,,,-99.99,,2013-10-16 00:12:00,
2013-10-15 18:52:00,41.0,19.0,-100.00,West,275,3.0,4.0,41,-99.99,,,-99.99,,2013-10-16 00:52:00,
2013-10-15 19:11:00,41.0,19.0,-100.00,West,280,4.0,4.0,41,-99.99,,,-99.99,,2013-10-16 01:11:00,
2013-10-15 20:12:00,34.0,18.0,-100.00,SW,235,2.0,4.0,51,-99.99,,,-99.99,,2013-10-16 02:12:00,
2013-10-15 20:52:00,35.0,22.0,-100.00,SW,235,7.0,7.0,57,-99.99,,,-99.99,,2013-10-16 02:52:00,
2013-10-15 21:11:00,35.0,22.0,-100.00,SW,235,7.0,7.0,57,-99.99,,,-99.99,,2013-10-16 03:11:00,
2013-10-15 21:55:00,35.0,21.0,-100.00,SW,235,9.0,9.0,56,-99.99,,,-99.99,,2013-10-16 03:55:00,
2013-10-15 22:14:00,35.0,21.0,-100.00,SW,230,9.0,9.0,56,-99.99,,,-99.99,,2013-10-16 04:14:00,
2013-10-15 22:54:00,33.0,22.0,-100.00,SW,225,7.0,8.0,61,-99.99,,,-99.99,,2013-10-16 04:54:00,
2013-10-15 23:13:00,33.0,22.0,-100.00,SW,225,9.0,9.0,62,-99.99,,,-99.99,,2013-10-16 05:13:00,
2013-10-15 23:53:00,33.0,23.0,-100.00,WSW,240,6.0,9.0,64,-99.99,,,-99.99,,2013-10-16 05:53:00,